Time;durP1;ratioP1;P1;durP2;ratioP2;P2;SDS_P1;SDS_P2;PMS_P1;PMS_P2;Temp;Humidity;BMP_temperature;BMP_pressure;BME280_temperature;BME280_humidity;BME280_pressure;Samples;Min_cycle;Max_cycle;Signal;HPM_P1;HPM_P2
2023/12/26 00:00:46;;;;;;;1.38;0.80;;;11.30;98.50;;;;;;5051758;28;20516;-45
2023/12/26 00:03:11;;;;;;;1.10;1.00;;;11.30;98.50;;;;;;5051706;28;20017;-43
2023/12/26 00:05:39;;;;;;;1.33;1.23;;;11.30;98.50;;;;;;5052001;28;20021;-42
2023/12/26 00:08:06;;;;;;;1.38;1.00;;;11.30;98.50;;;;;;5051840;28;20467;-41
2023/12/26 00:10:32;;;;;;;2.33;0.90;;;11.20;98.50;;;;;;5051405;28;20020;-41
2023/12/26 00:12:59;;;;;;;0.98;0.90;;;11.30;98.50;;;;;;5051623;28;20021;-45
2023/12/26 00:15:25;;;;;;;2.05;1.17;;;11.20;98.40;;;;;;5051458;28;20032;-42
2023/12/26 00:17:51;;;;;;;1.10;1.00;;;11.20;98.40;;;;;;5051431;28;20029;-44
2023/12/26 00:20:17;;;;;;;1.83;0.95;;;11.20;98.40;;;;;;5050999;28;20104;-43
2023/12/26 00:22:43;;;;;;;1.05;0.85;;;11.20;98.50;;;;;;5051806;28;20025;-42
2023/12/26 00:25:08;;;;;;;0.70;0.70;;;11.20;98.50;;;;;;5051530;28;20463;-49
2023/12/26 00:27:36;;;;;;;2.88;1.10;;;11.20;98.40;;;;;;5051343;28;20025;-43
2023/12/26 00:30:03;;;;;;;1.85;1.05;;;11.20;98.40;;;;;;5051216;28;20039;-44
2023/12/26 00:32:28;;;;;;;1.48;1.08;;;11.20;98.40;;;;;;5052926;28;20076;-44
2023/12/26 00:34:54;;;;;;;1.33;0.90;;;11.20;98.40;;;;;;5055727;28;20493;-41
2023/12/26 00:37:21;;;;;;;0.80;0.73;;;11.10;98.40;;;;;;5055951;28;20473;-43
2023/12/26 00:39:46;;;;;;;2.10;0.90;;;11.10;98.60;;;;;;5055569;28;20041;-45
2023/12/26 00:42:12;;;;;;;1.40;0.88;;;11.10;98.30;;;;;;5055365;28;20496;-42
2023/12/26 00:44:38;;;;;;;3.60;0.80;;;11.10;98.30;;;;;;5055406;28;20029;-44
2023/12/26 00:47:03;;;;;;;0.60;0.60;;;11.10;98.30;;;;;;5055286;28;20112;-43
2023/12/26 00:49:29;;;;;;;1.00;0.70;;;11.10;98.30;;;;;;5055099;28;20021;-42
2023/12/26 00:51:54;;;;;;;4.28;0.80;;;11.10;98.30;;;;;;5055125;28;20086;-46
2023/12/26 00:54:20;;;;;;;1.48;0.77;;;11.10;98.20;;;;;;5055316;28;20020;-42
2023/12/26 00:56:45;;;;;;;2.95;0.70;;;11.00;98.20;;;;;;5054751;28;20091;-43
2023/12/26 00:59:11;;;;;;;1.17;0.80;;;11.00;98.20;;;;;;5054794;28;20017;-45
2023/12/26 01:01:37;;;;;;;2.60;0.60;;;11.00;98.20;;;;;;5054840;28;20125;-53
2023/12/26 01:04:02;;;;;;;2.15;0.63;;;11.00;98.30;;;;;;5054906;28;20025;-45
2023/12/26 01:06:28;;;;;;;0.88;0.57;;;11.00;98.20;;;;;;5055114;28;20021;-46
2023/12/26 01:08:54;;;;;;;2.63;0.70;;;11.00;98.20;;;;;;5054576;28;20025;-48
2023/12/26 01:11:19;;;;;;;1.15;0.80;;;11.00;98.20;;;;;;5055098;28;20025;-47
2023/12/26 01:13:45;;;;;;;1.08;0.98;;;11.00;98.20;;;;;;5054817;28;20481;-45
2023/12/26 01:16:10;;;;;;;2.05;1.10;;;10.90;98.20;;;;;;5054942;28;20037;-46
2023/12/26 01:18:36;;;;;;;2.08;1.50;;;10.90;98.20;;;;;;5054474;28;20109;-49
2023/12/26 01:21:03;;;;;;;2.78;2.25;;;11.00;98.20;;;;;;5054373;28;20313;-46
2023/12/26 01:23:28;;;;;;;5.55;2.00;;;11.00;98.20;;;;;;5054455;28;20021;-48
2023/12/26 01:25:54;;;;;;;3.45;2.00;;;10.90;98.20;;;;;;5054655;28;20021;-47
2023/12/26 01:28:19;;;;;;;4.20;2.10;;;10.90;98.20;;;;;;5054727;28;20062;-46
2023/12/26 01:30:45;;;;;;;3.45;2.00;;;10.90;98.20;;;;;;5054759;28;20009;-45
2023/12/26 01:33:10;;;;;;;3.58;1.88;;;11.00;98.20;;;;;;5054276;28;20051;-50
2023/12/26 01:35:36;;;;;;;5.15;2.20;;;10.90;98.20;;;;;;5054596;28;20021;-49
2023/12/26 01:38:02;;;;;;;3.58;1.70;;;10.90;98.10;;;;;;5054400;28;20033;-45
2023/12/26 01:40:28;;;;;;;2.90;1.80;;;10.90;98.20;;;;;;5054091;28;20071;-48
2023/12/26 01:42:53;;;;;;;4.05;1.70;;;10.90;98.20;;;;;;5054019;28;20070;-43
2023/12/26 01:45:19;;;;;;;6.80;1.60;;;10.90;98.20;;;;;;5054146;28;20021;-43
2023/12/26 01:47:51;;;;;;;2.17;1.65;;;10.90;98.20;;;;;;5054284;28;20479;-44
2023/12/26 01:50:17;;;;;;;2.22;1.58;;;10.90;98.20;;;;;;5053822;28;20021;-47
2023/12/26 01:52:43;;;;;;;3.58;1.80;;;10.90;98.20;;;;;;5053992;28;20028;-43
2023/12/26 01:55:11;;;;;;;4.03;1.73;;;10.90;98.20;;;;;;5054053;28;20033;-48
2023/12/26 01:57:39;;;;;;;2.97;1.73;;;10.90;98.20;;;;;;5053849;28;20016;-45
2023/12/26 02:00:05;;;;;;;4.50;1.63;;;10.90;98.20;;;;;;5054034;28;20040;-46
2023/12/26 02:02:33;;;;;;;1.55;1.25;;;10.90;98.50;;;;;;5053442;28;20017;-46
2023/12/26 02:05:02;;;;;;;4.20;1.33;;;10.90;98.20;;;;;;5054196;28;20071;-46
2023/12/26 02:07:29;;;;;;;2.35;1.42;;;10.90;98.20;;;;;;5054149;28;20104;-43
2023/12/26 02:09:54;;;;;;;2.85;1.90;;;10.90;98.20;;;;;;5054151;28;20028;-48
2023/12/26 02:12:21;;;;;;;1.50;1.33;;;10.90;98.20;;;;;;5054362;28;20303;-46
2023/12/26 02:14:47;;;;;;;2.03;1.40;;;10.90;98.20;;;;;;5054628;28;20028;-52
2023/12/26 02:17:23;;;;;;;4.32;1.70;;;10.90;98.20;;;;;;5054417;28;20036;-43
2023/12/26 02:19:48;;;;;;;3.13;1.63;;;10.90;98.20;;;;;;5053684;28;20300;-46
2023/12/26 02:22:14;;;;;;;3.38;1.65;;;10.90;98.20;;;;;;5053526;28;20056;-42
2023/12/26 02:24:43;;;;;;;2.10;1.42;;;10.90;98.20;;;;;;5053871;28;20492;-48
2023/12/26 02:27:29;;;;;;;3.10;1.52;;;10.90;98.20;;;;;;5053234;28;20033;-47
2023/12/26 02:29:56;;;;;;;3.53;1.90;;;10.90;98.20;;;;;;5053223;28;20500;-44
2023/12/26 02:32:24;;;;;;;2.08;1.30;;;10.90;98.20;;;;;;5053440;28;20025;-44
2023/12/26 02:34:54;;;;;;;3.35;1.40;;;10.90;98.30;;;;;;5053617;28;20032;-49
2023/12/26 02:37:21;;;;;;;5.90;1.70;;;10.90;98.20;;;;;;5052998;28;20033;-49
2023/12/26 02:39:46;;;;;;;3.22;1.45;;;10.90;98.30;;;;;;5053197;28;20024;-45
2023/12/26 02:42:16;;;;;;;3.65;1.45;;;10.90;98.30;;;;;;5053394;28;20024;-43
2023/12/26 02:44:41;;;;;;;2.28;1.40;;;10.90;98.30;;;;;;5053148;28;20519;-45
2023/12/26 02:47:08;;;;;;;2.65;1.50;;;11.00;98.30;;;;;;5052926;28;20017;-45
2023/12/26 02:49:34;;;;;;;3.20;1.30;;;10.90;98.30;;;;;;5053181;28;20021;-42
2023/12/26 02:51:59;;;;;;;2.20;0.90;;;11.00;98.20;;;;;;5053060;28;20094;-46
2023/12/26 02:54:25;;;;;;;3.17;0.57;;;10.90;97.70;;;;;;5052637;28;20057;-47
2023/12/26 02:56:51;;;;;;;2.95;0.90;;;10.80;97.30;;;;;;5052947;28;20033;-41
2023/12/26 02:59:16;;;;;;;1.58;0.77;;;10.70;97.00;;;;;;5052892;28;20017;-45
2023/12/26 03:01:45;;;;;;;2.10;0.80;;;10.60;97.00;;;;;;5053065;28;20017;-41
2023/12/26 03:04:10;;;;;;;2.90;0.85;;;10.50;97.00;;;;;;5052829;28;20465;-47
2023/12/26 03:06:36;;;;;;;3.30;0.70;;;10.50;96.90;;;;;;5052681;28;20028;-44
2023/12/26 03:09:01;;;;;;;2.17;0.77;;;10.40;97.00;;;;;;5052441;28;20070;-43
2023/12/26 03:11:27;;;;;;;5.00;1.38;;;10.40;97.10;;;;;;5052514;28;20033;-43
2023/12/26 03:13:53;;;;;;;3.58;1.13;;;10.40;97.20;;;;;;5052705;28;20113;-47
2023/12/26 03:16:20;;;;;;;4.95;1.48;;;10.50;97.40;;;;;;5052369;28;20392;-43
2023/12/26 03:18:46;;;;;;;5.80;1.70;;;10.50;97.50;;;;;;5052277;28;20074;-45
2023/12/26 03:21:12;;;;;;;7.65;1.90;;;10.60;97.60;;;;;;5052496;28;20021;-41
2023/12/26 03:23:37;;;;;;;7.68;1.85;;;10.70;97.60;;;;;;5052513;28;20013;-41
2023/12/26 03:26:03;;;;;;;5.15;1.52;;;10.70;97.60;;;;;;5052297;28;20052;-41
2023/12/26 03:28:28;;;;;;;7.07;1.95;;;10.80;97.60;;;;;;5051987;28;20052;-45
2023/12/26 03:30:54;;;;;;;10.93;1.90;;;10.80;97.50;;;;;;5052086;28;20025;-41
2023/12/26 03:33:19;;;;;;;6.82;1.77;;;10.80;97.40;;;;;;5052002;28;20045;-46
2023/12/26 03:35:45;;;;;;;6.15;2.45;;;10.80;97.40;;;;;;5052027;28;20021;-44
2023/12/26 03:38:11;;;;;;;8.25;1.73;;;10.80;97.30;;;;;;5052256;28;20144;-44
2023/12/26 03:40:36;;;;;;;9.18;1.70;;;10.90;97.30;;;;;;5051868;28;20559;-42
2023/12/26 03:43:03;;;;;;;6.53;1.48;;;10.90;97.20;;;;;;5051980;28;20142;-44
2023/12/26 03:45:29;;;;;;;5.28;1.20;;;10.90;97.00;;;;;;5052264;28;20070;-47
2023/12/26 03:47:55;;;;;;;7.20;1.60;;;10.90;97.00;;;;;;5052200;28;20040;-49
2023/12/26 03:50:21;;;;;;;6.18;1.65;;;10.80;96.90;;;;;;5051818;28;20029;-48
2023/12/26 03:52:47;;;;;;;4.60;1.65;;;10.80;96.90;;;;;;5052009;28;20052;-46
2023/12/26 03:55:14;;;;;;;4.43;1.40;;;10.80;96.70;;;;;;5052027;28;20100;-45
2023/12/26 03:57:41;;;;;;;5.35;1.60;;;10.80;96.60;;;;;;5051952;28;20441;-47
2023/12/26 04:00:08;;;;;;;6.90;1.42;;;10.80;96.60;;;;;;5051708;28;20028;-45
2023/12/26 04:02:34;;;;;;;5.10;1.60;;;10.80;96.50;;;;;;5050588;28;20056;-49
2023/12/26 04:05:01;;;;;;;6.97;1.40;;;10.70;96.30;;;;;;5051511;28;20041;-47
2023/12/26 04:07:27;;;;;;;8.63;1.50;;;10.80;96.30;;;;;;5051005;28;20436;-42
2023/12/26 04:09:52;;;;;;;8.77;1.60;;;10.70;96.20;;;;;;5051466;28;20104;-49
2023/12/26 04:12:18;;;;;;;6.93;1.40;;;10.70;95.90;;;;;;5051641;28;20433;-50
2023/12/26 04:14:43;;;;;;;9.55;1.58;;;10.70;95.90;;;;;;5051745;28;20416;-47
2023/12/26 04:17:09;;;;;;;5.25;1.40;;;10.70;95.80;;;;;;5051373;28;20053;-50
2023/12/26 04:19:34;;;;;;;5.30;1.30;;;10.60;95.70;;;;;;5051119;28;20075;-50
2023/12/26 04:22:00;;;;;;;4.95;1.23;;;10.60;95.50;;;;;;5051379;28;20016;-45
2023/12/26 04:24:25;;;;;;;3.47;1.20;;;10.60;95.70;;;;;;5051409;28;20048;-47
2023/12/26 04:26:51;;;;;;;5.75;1.40;;;10.60;95.50;;;;;;5051421;28;20029;-51
2023/12/26 04:29:16;;;;;;;7.07;1.70;;;10.50;95.20;;;;;;5051482;28;20025;-45
2023/12/26 04:31:42;;;;;;;6.20;1.20;;;10.40;94.80;;;;;;5051273;28;20056;-48
2023/12/26 04:34:08;;;;;;;4.88;1.35;;;10.30;94.90;;;;;;5051160;28;20037;-47
2023/12/26 04:36:35;;;;;;;6.05;1.25;;;10.30;94.90;;;;;;5051414;28;20026;-45
2023/12/26 04:39:01;;;;;;;3.97;1.30;;;10.20;95.00;;;;;;5051316;28;20100;-51
2023/12/26 04:41:26;;;;;;;5.10;1.20;;;10.20;94.80;;;;;;5051558;28;20549;-50
2023/12/26 04:43:52;;;;;;;7.70;1.90;;;10.10;94.90;;;;;;5051236;28;20030;-48
2023/12/26 04:46:20;;;;;;;4.57;1.42;;;10.00;94.60;;;;;;5051099;28;20108;-48
2023/12/26 04:48:46;;;;;;;4.28;1.00;;;10.00;94.60;;;;;;5050982;28;20107;-47
2023/12/26 04:51:18;;;;;;;3.70;1.30;;;9.90;94.60;;;;;;5051483;28;20025;-45
2023/12/26 04:53:47;;;;;;;2.55;0.80;;;9.90;94.60;;;;;;5051489;28;20083;-45
2023/12/26 04:56:20;;;;;;;3.45;0.80;;;9.80;94.20;;;;;;5049770;28;20025;-45
2023/12/26 04:58:50;;;;;;;9.20;1.70;;;9.80;94.50;;;;;;5050724;28;20037;-49
2023/12/26 05:01:17;;;;;;;8.65;1.27;;;9.70;94.20;;;;;;5051170;28;20029;-46
2023/12/26 05:03:43;;;;;;;7.38;1.25;;;9.70;94.10;;;;;;5051149;28;20029;-45
2023/12/26 05:06:09;;;;;;;5.65;1.27;;;9.60;94.20;;;;;;5050956;28;20025;-46
2023/12/26 05:08:39;;;;;;;3.63;1.15;;;9.60;94.30;;;;;;5050944;28;20028;-50
2023/12/26 05:11:06;;;;;;;4.60;1.42;;;9.60;94.40;;;;;;5051318;28;20048;-48
2023/12/26 05:13:32;;;;;;;6.00;1.40;;;9.60;94.50;;;;;;5050936;28;20056;-48
2023/12/26 05:16:02;;;;;;;4.70;1.38;;;9.60;94.50;;;;;;5050886;28;20025;-47
2023/12/26 05:18:27;;;;;;;5.25;1.15;;;9.50;94.50;;;;;;5052364;28;20078;-47
2023/12/26 05:20:53;;;;;;;10.13;1.30;;;9.50;94.40;;;;;;5054595;28;20100;-43
2023/12/26 05:23:18;;;;;;;5.65;1.30;;;9.50;94.40;;;;;;5054825;28;20499;-48
2023/12/26 05:25:44;;;;;;;8.80;1.55;;;9.50;94.30;;;;;;5054319;28;20025;-46
2023/12/26 05:28:10;;;;;;;5.55;1.63;;;9.50;94.20;;;;;;5054096;28;20025;-49
2023/12/26 05:30:35;;;;;;;7.47;1.40;;;9.50;94.40;;;;;;5054383;28;20387;-47
2023/12/26 05:33:01;;;;;;;5.30;1.13;;;9.40;94.40;;;;;;5054548;28;20038;-47
2023/12/26 05:35:26;;;;;;;5.68;1.30;;;9.40;94.40;;;;;;5053968;28;20110;-45
2023/12/26 05:37:53;;;;;;;4.70;1.17;;;9.40;94.50;;;;;;5054218;28;20468;-44
2023/12/26 05:40:19;;;;;;;4.28;1.20;;;9.50;94.50;;;;;;5054401;28;20487;-49
2023/12/26 05:42:47;;;;;;;8.57;1.70;;;9.50;94.40;;;;;;5054442;28;20017;-49
2023/12/26 05:45:12;;;;;;;4.38;1.25;;;9.50;94.40;;;;;;5054509;28;20020;-46
2023/12/26 05:47:38;;;;;;;6.43;1.48;;;9.50;94.20;;;;;;5054117;28;20108;-44
2023/12/26 05:50:04;;;;;;;5.93;1.42;;;9.50;94.20;;;;;;5053791;28;20033;-46
2023/12/26 05:52:29;;;;;;;5.82;1.60;;;9.50;94.10;;;;;;5054064;28;20033;-49
2023/12/26 05:54:55;;;;;;;4.72;1.30;;;9.50;94.00;;;;;;5054166;28;20045;-47
2023/12/26 05:57:21;;;;;;;6.93;1.20;;;9.40;94.10;;;;;;5053821;28;20028;-47
2023/12/26 05:59:46;;;;;;;6.18;1.30;;;9.40;94.00;;;;;;5053819;28;20032;-47
2023/12/26 06:02:12;;;;;;;5.40;1.27;;;9.30;94.00;;;;;;5054205;28;20017;-51
2023/12/26 06:04:37;;;;;;;6.97;1.90;;;9.30;94.00;;;;;;5054121;28;20108;-46
2023/12/26 06:07:03;;;;;;;5.72;1.20;;;9.20;94.00;;;;;;5054144;28;20167;-46
2023/12/26 06:09:29;;;;;;;6.00;1.25;;;9.20;94.00;;;;;;5053917;28;20494;-52
2023/12/26 06:11:55;;;;;;;6.28;1.35;;;9.10;93.60;;;;;;5053818;28;20036;-47
2023/12/26 06:14:22;;;;;;;5.95;1.20;;;9.00;93.70;;;;;;5053977;28;20029;-50
2023/12/26 06:16:48;;;;;;;7.40;1.35;;;9.00;93.80;;;;;;5053925;28;20480;-47
2023/12/26 06:19:13;;;;;;;8.07;1.45;;;9.00;94.00;;;;;;5053401;28;20013;-44
2023/12/26 06:21:39;;;;;;;7.80;1.40;;;8.90;93.60;;;;;;5053512;28;20120;-47
2023/12/26 06:24:04;;;;;;;4.60;1.35;;;8.90;93.50;;;;;;5053561;28;20099;-47
2023/12/26 06:26:30;;;;;;;7.78;1.27;;;8.80;93.20;;;;;;5053777;28;20036;-45
2023/12/26 06:28:55;;;;;;;6.38;1.30;;;8.80;93.40;;;;;;5053001;28;20033;-46
2023/12/26 06:31:21;;;;;;;5.32;1.15;;;8.80;93.30;;;;;;5052717;28;20027;-47
2023/12/26 06:33:47;;;;;;;8.68;1.45;;;8.70;93.30;;;;;;5053090;28;20080;-51
2023/12/26 06:36:12;;;;;;;9.15;1.35;;;8.70;93.20;;;;;;5053750;28;20023;-45
2023/12/26 06:38:38;;;;;;;7.18;1.50;;;8.70;93.00;;;;;;5053064;28;20105;-47
2023/12/26 06:41:04;;;;;;;4.70;1.30;;;8.70;93.10;;;;;;5053505;28;20035;-46
2023/12/26 06:43:30;;;;;;;13.80;1.88;;;8.60;93.10;;;;;;5053103;28;20044;-45
2023/12/26 06:45:56;;;;;;;6.20;1.30;;;8.60;93.00;;;;;;5053532;28;20498;-44
2023/12/26 06:48:22;;;;;;;5.65;1.42;;;8.60;93.00;;;;;;5053044;28;20024;-48
2023/12/26 06:50:48;;;;;;;4.85;1.17;;;8.60;93.10;;;;;;5052847;28;20021;-44
2023/12/26 06:53:13;;;;;;;8.50;1.40;;;8.60;93.10;;;;;;5053128;28;20048;-46
2023/12/26 06:55:39;;;;;;;8.80;1.90;;;8.50;93.20;;;;;;5052892;28;20461;-50
2023/12/26 06:58:05;;;;;;;8.02;2.10;;;8.50;93.30;;;;;;5052984;28;20024;-43
2023/12/26 07:00:30;;;;;;;6.10;1.30;;;8.50;93.40;;;;;;5052344;28;20017;-42
2023/12/26 07:02:56;;;;;;;6.97;1.23;;;8.50;93.20;;;;;;5052593;28;20032;-43
2023/12/26 07:05:21;;;;;;;12.18;1.75;;;8.50;93.20;;;;;;5052893;28;20028;-48
2023/12/26 07:07:48;;;;;;;7.68;1.50;;;8.50;93.20;;;;;;5052786;28;20056;-45
2023/12/26 07:10:14;;;;;;;8.65;1.38;;;8.50;93.30;;;;;;5052482;28;20013;-51
2023/12/26 07:12:39;;;;;;;8.68;1.60;;;8.40;93.20;;;;;;5053024;28;20111;-51
2023/12/26 07:15:06;;;;;;;7.32;1.50;;;8.40;93.00;;;;;;5052685;28;20024;-45
2023/12/26 07:17:32;;;;;;;11.80;1.88;;;8.40;92.90;;;;;;5052692;28;20032;-46
2023/12/26 07:19:58;;;;;;;7.68;2.08;;;8.40;92.70;;;;;;5052180;28;20122;-45
2023/12/26 07:22:24;;;;;;;7.43;1.50;;;8.40;92.70;;;;;;5052505;28;20453;-49
2023/12/26 07:24:49;;;;;;;5.47;1.45;;;8.40;92.70;;;;;;5051191;28;20029;-49
2023/12/26 07:27:15;;;;;;;8.40;1.38;;;8.40;92.60;;;;;;5052172;28;20411;-42
2023/12/26 07:29:40;;;;;;;5.68;1.25;;;8.30;92.70;;;;;;5052044;28;20124;-47
2023/12/26 07:32:06;;;;;;;5.03;1.38;;;8.30;92.80;;;;;;5052061;28;20025;-43
2023/12/26 07:34:32;;;;;;;6.57;1.52;;;8.30;92.80;;;;;;5052496;28;20074;-50
2023/12/26 07:36:57;;;;;;;5.35;1.45;;;8.30;92.80;;;;;;5052237;28;20029;-50
2023/12/26 07:39:23;;;;;;;6.68;1.38;;;8.30;92.80;;;;;;5052052;28;20048;-45
2023/12/26 07:41:48;;;;;;;6.25;1.27;;;8.20;92.80;;;;;;5051880;28;20028;-46
2023/12/26 07:44:14;;;;;;;6.38;1.38;;;8.20;92.80;;;;;;5052456;28;20092;-46
2023/12/26 07:46:39;;;;;;;7.93;1.73;;;8.20;92.90;;;;;;5052307;28;20028;-47
2023/12/26 07:49:06;;;;;;;6.60;1.50;;;8.20;92.80;;;;;;5051892;28;20032;-43
2023/12/26 07:51:32;;;;;;;9.90;1.70;;;8.20;92.80;;;;;;5052275;28;20358;-51
2023/12/26 07:53:59;;;;;;;4.90;1.02;;;8.20;92.80;;;;;;5052029;28;20027;-48
2023/12/26 07:56:25;;;;;;;9.90;1.85;;;8.20;92.80;;;;;;5051790;28;20053;-47
2023/12/26 07:58:52;;;;;;;4.22;1.30;;;8.20;92.90;;;;;;5052266;28;20056;-48
2023/12/26 08:01:18;;;;;;;5.90;1.60;;;8.20;92.90;;;;;;5050542;28;20120;-47
2023/12/26 08:03:44;;;;;;;4.90;1.50;;;8.20;92.90;;;;;;5052106;28;20104;-44
2023/12/26 08:06:10;;;;;;;4.13;1.70;;;8.20;92.90;;;;;;5051697;28;20032;-44
2023/12/26 08:08:35;;;;;;;4.53;1.40;;;8.20;92.90;;;;;;5051628;28;20047;-44
2023/12/26 08:11:01;;;;;;;10.15;1.63;;;8.20;92.70;;;;;;5052263;28;20021;-44
2023/12/26 08:13:26;;;;;;;11.30;1.95;;;8.20;92.80;;;;;;5051710;28;20017;-42
2023/12/26 08:15:52;;;;;;;10.57;1.90;;;8.30;92.60;;;;;;5052187;28;20104;-43
2023/12/26 08:18:17;;;;;;;8.15;1.60;;;8.30;92.60;;;;;;5051558;28;20057;-46
2023/12/26 08:20:43;;;;;;;7.90;2.03;;;8.30;92.30;;;;;;5051885;28;20032;-43
2023/12/26 08:23:08;;;;;;;10.18;1.70;;;8.30;92.20;;;;;;5051876;28;20029;-40
2023/12/26 08:25:34;;;;;;;8.85;1.77;;;8.30;91.60;;;;;;5052272;28;20029;-42
2023/12/26 08:28:01;;;;;;;11.82;1.95;;;8.30;91.60;;;;;;5051887;28;20103;-42
2023/12/26 08:30:26;;;;;;;9.75;2.15;;;8.30;91.40;;;;;;5050753;28;20048;-41
2023/12/26 08:32:52;;;;;;;6.47;1.38;;;8.30;91.50;;;;;;5051507;28;20036;-51
2023/12/26 08:35:17;;;;;;;10.07;1.90;;;8.40;90.90;;;;;;5051746;28;20033;-44
2023/12/26 08:37:43;;;;;;;7.95;1.60;;;8.40;91.00;;;;;;5051819;28;20071;-48
2023/12/26 08:40:08;;;;;;;5.32;1.40;;;8.40;90.60;;;;;;5051744;28;20022;-45
2023/12/26 08:42:34;;;;;;;6.15;1.45;;;8.40;90.90;;;;;;5051950;28;20041;-45
2023/12/26 08:44:59;;;;;;;5.90;1.30;;;8.40;91.00;;;;;;5050310;28;20081;-47
2023/12/26 08:47:25;;;;;;;4.72;1.17;;;8.40;91.20;;;;;;5051413;28;20033;-45
2023/12/26 08:49:51;;;;;;;6.75;1.20;;;8.30;91.30;;;;;;5051239;28;20017;-47
2023/12/26 08:52:16;;;;;;;7.50;1.55;;;8.30;91.40;;;;;;5051415;28;20025;-46
2023/12/26 08:54:43;;;;;;;8.43;1.17;;;8.30;91.30;;;;;;5055331;28;20033;-47
2023/12/26 08:57:08;;;;;;;7.25;1.23;;;8.30;91.50;;;;;;5055282;28;20053;-43
2023/12/26 08:59:34;;;;;;;10.27;1.80;;;8.40;91.50;;;;;;5055296;28;20045;-48
2023/12/26 09:02:00;;;;;;;5.95;1.75;;;8.40;91.60;;;;;;5055578;28;20101;-46
2023/12/26 09:04:26;;;;;;;6.72;1.52;;;8.40;91.60;;;;;;5055122;28;20025;-45
2023/12/26 09:06:55;;;;;;;5.50;1.40;;;8.40;91.70;;;;;;5055281;28;20508;-44
2023/12/26 09:09:20;;;;;;;9.07;2.00;;;8.40;91.70;;;;;;5055032;28;20040;-45
2023/12/26 09:11:46;;;;;;;7.25;1.80;;;8.50;91.70;;;;;;5055141;28;20408;-44
2023/12/26 09:14:13;;;;;;;9.85;2.28;;;8.50;91.70;;;;;;5055054;28;20025;-46
2023/12/26 09:16:39;;;;;;;6.60;1.90;;;8.50;91.70;;;;;;5053604;28;20035;-44
2023/12/26 09:19:05;;;;;;;8.27;1.98;;;8.50;91.70;;;;;;5055061;28;20021;-45
2023/12/26 09:21:30;;;;;;;7.40;1.60;;;8.50;91.80;;;;;;5054901;28;20025;-44
2023/12/26 09:23:56;;;;;;;4.63;1.50;;;8.50;91.90;;;;;;5054698;28;20419;-46
2023/12/26 09:26:22;;;;;;;8.30;1.65;;;8.50;91.90;;;;;;5054561;28;20029;-44
2023/12/26 09:28:48;;;;;;;5.22;1.33;;;8.50;92.00;;;;;;5054398;28;20030;-44
2023/12/26 09:31:14;;;;;;;8.77;1.88;;;8.50;92.00;;;;;;5054698;28;20032;-45
2023/12/26 09:33:39;;;;;;;8.63;1.98;;;8.50;92.00;;;;;;5054645;28;20045;-45
2023/12/26 09:36:05;;;;;;;6.50;1.42;;;8.60;92.10;;;;;;5054919;28;20309;-46
2023/12/26 09:38:31;;;;;;;4.22;1.50;;;8.50;92.10;;;;;;5054494;28;20024;-45
2023/12/26 09:40:57;;;;;;;9.05;1.90;;;8.60;92.20;;;;;;5054836;28;20070;-44
2023/12/26 09:43:22;;;;;;;6.88;1.95;;;8.60;92.20;;;;;;5053087;28;20021;-45
2023/12/26 09:45:48;;;;;;;10.63;2.17;;;8.70;91.70;;;;;;5054240;28;20017;-46
2023/12/26 09:48:15;;;;;;;13.70;2.63;;;8.80;91.80;;;;;;5054326;28;20127;-40
2023/12/26 09:50:42;;;;;;;9.55;2.00;;;8.80;91.80;;;;;;5054391;28;20469;-45
2023/12/26 09:53:08;;;;;;;11.30;2.45;;;8.90;91.80;;;;;;5054549;28;20473;-44
2023/12/26 09:55:34;;;;;;;8.70;2.10;;;8.90;91.70;;;;;;5054324;28;20017;-47
2023/12/26 09:58:00;;;;;;;10.23;1.77;;;8.90;91.30;;;;;;5054316;28;20021;-43
2023/12/26 10:00:26;;;;;;;11.50;2.58;;;9.00;91.20;;;;;;5054468;28;20059;-43
2023/12/26 10:02:53;;;;;;;11.48;2.50;;;9.00;91.00;;;;;;5054618;28;20020;-46
2023/12/26 10:05:19;;;;;;;11.38;2.00;;;9.00;90.80;;;;;;5054175;28;20056;-45
2023/12/26 10:07:44;;;;;;;10.43;2.10;;;9.10;90.90;;;;;;5054417;28;20035;-45
2023/12/26 10:10:19;;;;;;;10.55;2.40;;;9.10;90.70;;;;;;5054564;28;20381;-47
2023/12/26 10:12:48;;;;;;;11.75;2.00;;;9.10;90.90;;;;;;5054231;28;20024;-43
2023/12/26 10:15:14;;;;;;;7.10;2.10;;;9.20;91.00;;;;;;5054335;28;20029;-43
2023/12/26 10:17:44;;;;;;;9.02;2.40;;;9.20;91.10;;;;;;5054381;28;20032;-45
2023/12/26 10:20:14;;;;;;;15.98;2.35;;;9.20;90.70;;;;;;5054190;28;20095;-45
2023/12/26 10:22:44;;;;;;;14.63;2.53;;;9.20;90.20;;;;;;5054198;28;20120;-47
2023/12/26 10:25:13;;;;;;;10.40;2.03;;;9.20;89.90;;;;;;5054265;28;20028;-45
2023/12/26 10:27:39;;;;;;;10.60;2.65;;;9.30;90.10;;;;;;5053713;28;20036;-46
2023/12/26 10:30:06;;;;;;;11.48;2.50;;;9.30;89.80;;;;;;5053919;28;20021;-48
2023/12/26 10:32:31;;;;;;;13.15;2.00;;;9.40;90.10;;;;;;5053795;28;20036;-44
2023/12/26 10:35:15;;;;;;;12.18;2.53;;;9.40;89.80;;;;;;5054290;28;20517;-48
2023/12/26 10:37:41;;;;;;;8.82;2.22;;;9.40;89.80;;;;;;5053638;28;20029;-46
2023/12/26 10:40:08;;;;;;;9.55;1.80;;;9.40;89.30;;;;;;5054004;28;20539;-43
2023/12/26 10:42:41;;;;;;;7.22;2.42;;;9.40;89.50;;;;;;5054009;28;20024;-46
2023/12/26 10:45:08;;;;;;;8.25;1.95;;;9.50;89.90;;;;;;5053767;28;20091;-43
2023/12/26 10:47:34;;;;;;;15.50;2.58;;;9.50;89.40;;;;;;5053685;28;20033;-50
2023/12/26 10:50:02;;;;;;;12.15;2.15;;;9.50;88.80;;;;;;5053949;28;20366;-45
2023/12/26 10:52:29;;;;;;;9.32;2.13;;;9.50;88.60;;;;;;5053520;28;20454;-47
2023/12/26 10:55:04;;;;;;;9.32;1.90;;;9.60;88.50;;;;;;5054051;28;20369;-48
2023/12/26 10:57:32;;;;;;;8.35;2.20;;;9.70;88.80;;;;;;5053444;28;20417;-48
2023/12/26 10:59:58;;;;;;;16.40;2.38;;;9.70;88.20;;;;;;5053800;28;20017;-46
2023/12/26 11:02:24;;;;;;;12.00;2.13;;;9.80;88.60;;;;;;5053391;28;20048;-49
2023/12/26 11:04:50;;;;;;;8.27;1.90;;;9.90;88.60;;;;;;5053487;28;20082;-46
2023/12/26 11:07:15;;;;;;;11.35;2.15;;;9.90;88.20;;;;;;5053573;28;20403;-43
2023/12/26 11:09:41;;;;;;;14.68;2.47;;;10.00;88.30;;;;;;5053155;28;20028;-48
2023/12/26 11:12:08;;;;;;;7.43;1.92;;;10.10;87.00;;;;;;5053102;28;20024;-50
2023/12/26 11:14:33;;;;;;;6.10;1.60;;;10.10;87.10;;;;;;5053153;28;20588;-48
2023/12/26 11:16:59;;;;;;;10.48;2.20;;;10.20;87.40;;;;;;5052553;28;20104;-50
2023/12/26 11:19:26;;;;;;;14.70;2.05;;;10.30;87.10;;;;;;5053316;28;20492;-44
2023/12/26 11:21:52;;;;;;;13.70;2.70;;;10.30;87.00;;;;;;5052866;28;20029;-48
2023/12/26 11:24:17;;;;;;;10.27;2.30;;;10.40;86.40;;;;;;5053025;28;20048;-47
2023/12/26 11:26:43;;;;;;;10.75;2.33;;;10.40;86.20;;;;;;5052863;28;20082;-47
2023/12/26 11:29:08;;;;;;;7.05;1.80;;;10.30;86.20;;;;;;5052819;28;20505;-49
2023/12/26 11:31:36;;;;;;;8.52;2.38;;;10.40;86.30;;;;;;5053012;28;20025;-45
2023/12/26 11:34:02;;;;;;;9.85;1.88;;;10.40;86.50;;;;;;5051322;28;20049;-47
2023/12/26 11:36:28;;;;;;;12.98;2.45;;;10.40;86.20;;;;;;5052646;28;20102;-47
2023/12/26 11:38:53;;;;;;;10.70;2.28;;;10.30;84.20;;;;;;5052785;28;20017;-49
2023/12/26 11:41:19;;;;;;;10.48;2.47;;;10.30;83.80;;;;;;5052817;28;20025;-43
2023/12/26 11:43:45;;;;;;;13.65;2.33;;;10.20;84.70;;;;;;5052610;28;20021;-46
2023/12/26 11:46:10;;;;;;;13.90;2.35;;;10.20;84.60;;;;;;5052811;28;20021;-47
2023/12/26 11:48:36;;;;;;;7.43;2.28;;;10.20;84.60;;;;;;5052489;28;20021;-43
2023/12/26 11:51:02;;;;;;;11.05;1.92;;;10.20;85.40;;;;;;5052850;28;20025;-44
2023/12/26 11:53:28;;;;;;;12.25;2.70;;;10.30;85.80;;;;;;5052768;28;20021;-43
2023/12/26 11:55:54;;;;;;;10.93;2.08;;;10.20;85.10;;;;;;5052723;28;20025;-43
2023/12/26 11:58:19;;;;;;;11.75;2.13;;;10.20;84.80;;;;;;5052191;28;20773;-46
2023/12/26 12:00:45;;;;;;;10.18;1.75;;;10.20;85.10;;;;;;5052214;28;20028;-41
2023/12/26 12:03:10;;;;;;;11.10;2.03;;;10.20;85.50;;;;;;5052454;28;20013;-45
2023/12/26 12:05:36;;;;;;;8.15;1.90;;;10.10;84.80;;;;;;5052432;28;20025;-42
2023/12/26 12:08:12;;;;;;;9.07;1.77;;;10.10;85.60;;;;;;5052487;28;20098;-48
2023/12/26 12:11:07;;;;;;;11.45;2.05;;;10.10;85.10;;;;;;5052251;28;20025;-43
2023/12/26 12:13:32;;;;;;;11.45;2.00;;;10.10;84.30;;;;;;5052427;28;20024;-46
2023/12/26 12:15:58;;;;;;;12.13;2.55;;;10.10;84.50;;;;;;5052298;28;20070;-43
2023/12/26 12:18:24;;;;;;;11.65;2.42;;;10.10;83.80;;;;;;5052443;28;20036;-47
2023/12/26 12:20:49;;;;;;;6.63;1.80;;;10.10;84.60;;;;;;5052309;28;20021;-45
2023/12/26 12:23:15;;;;;;;7.78;2.15;;;10.10;84.80;;;;;;5051078;28;20021;-44
2023/12/26 12:25:40;;;;;;;8.10;2.13;;;10.10;85.00;;;;;;5051940;28;20064;-45
2023/12/26 12:28:09;;;;;;;8.43;1.90;;;10.10;85.00;;;;;;5053102;28;20017;-45
2023/12/26 12:30:35;;;;;;;11.45;2.10;;;10.00;84.20;;;;;;5056611;28;20156;-45
2023/12/26 12:33:19;;;;;;;8.60;1.80;;;10.00;84.40;;;;;;5056169;28;20473;-45
2023/12/26 12:35:46;;;;;;;;;;;10.00;84.90;;;;;;5056759;28;20051;-47
2023/12/26 12:38:12;;;;;;;11.88;2.10;;;10.00;85.10;;;;;;5056168;28;19915;-47
2023/12/26 12:40:38;;;;;;;11.90;2.45;;;10.00;85.40;;;;;;5056105;28;20100;-49
2023/12/26 12:43:03;;;;;;;9.85;2.30;;;10.00;84.80;;;;;;5056117;28;20017;-45
2023/12/26 12:45:29;;;;;;;8.27;2.00;;;10.00;84.00;;;;;;5056424;28;20486;-44